Elk Bend, Idaho
Current Conditions -  °F | °C
As of 11:15 PM on Saturday 25 Oct 2014 (Local Time) from KSMN Reporting Station
Overcast Overcast  
Wind Chill: 55°   Ceiling: 9000
Heat Index: 55°   Visibility: 10mi
Dew Point: 36°   Wind: 18mph
Humidity: 47%   Direction: 200°SSW
Pressure: 29.8"   Gusts: 23mph
Location:  45.092°N, 113.703°W
Report Text: KSMN 260515Z AUTO 20016G20KT 10SM BKN090 OVC110 13/02 A2980 RMK AO1
Loading
Personal Weather Stations






























Interactive Weather Map
Tropical Storm Tracking
New forecast layout! Learn more

10-Day Weather Forecast

Advertisements
Track Severe Weather on mobile